Time;durP1;ratioP1;P1;durP2;ratioP2;P2;SDS_P1;SDS_P2;PMS_P1;PMS_P2;Temp;Humidity;BMP_temperature;BMP_pressure;BME280_temperature;BME280_humidity;BME280_pressure;Samples;Min_cycle;Max_cycle;Signal;HPM_P1;HPM_P2
2022/12/29 00:00:19;;;;;;;0.90;0.60;;;;;18.00;99165.00;;;;2070661;28;20221;-53
2022/12/29 00:01:19;;;;;;;0.80;0.57;;;;;18.00;99180.00;;;;2070798;28;20248;-53
2022/12/29 00:02:20;;;;;;;0.70;0.50;;;;;17.90;99163.00;;;;2069908;28;20278;-52
2022/12/29 00:03:20;;;;;;;0.90;0.50;;;;;18.00;99173.00;;;;2070910;28;20213;-53
2022/12/29 00:04:20;;;;;;;0.80;0.50;;;;;18.00;99163.00;;;;2062856;28;20249;-53
2022/12/29 00:05:21;;;;;;;0.77;0.50;;;;;18.00;99157.00;;;;2070895;28;20213;-52
2022/12/29 00:06:21;;;;;;;1.30;0.57;;;;;18.00;99165.00;;;;2070693;28;20252;-52
2022/12/29 00:07:21;;;;;;;0.70;0.50;;;;;18.00;99147.00;;;;2070928;28;20214;-53
2022/12/29 00:08:38;;;;;;;0.70;0.50;;;;;17.90;99139.00;;;;2070823;28;20213;-52
2022/12/29 00:09:39;;;;;;;0.70;0.43;;;;;17.90;99154.00;;;;2069564;28;20220;-54
2022/12/29 00:10:39;;;;;;;0.80;0.50;;;;;18.00;99166.00;;;;2070042;28;20213;-55
2022/12/29 00:11:40;;;;;;;0.80;0.60;;;;;18.00;99147.00;;;;2069824;28;20217;-54
2022/12/29 00:16:37;;;;;;;0.70;0.50;;;;;18.00;99146.00;;;;2068770;28;20233;-52
2022/12/29 00:17:37;;;;;;;0.70;0.50;;;;;18.00;99140.00;;;;2070099;28;20210;-53
2022/12/29 00:18:38;;;;;;;0.67;0.40;;;;;17.90;99141.00;;;;2069787;28;20230;-52
2022/12/29 00:35:36;;;;;;;0.80;0.57;;;;;17.90;99126.00;;;;2067870;28;20228;-52
2022/12/29 00:36:38;;;;;;;0.70;0.60;;;;;17.90;99114.00;;;;2069711;28;20217;-52
2022/12/29 00:44:17;;;;;;;0.70;0.50;;;;;17.90;99123.00;;;;2069737;28;20221;-53
2022/12/29 00:45:18;;;;;;;0.70;0.50;;;;;17.90;99117.00;;;;2070076;28;20257;-52
2022/12/29 00:46:18;;;;;;;0.80;0.50;;;;;17.90;99118.00;;;;2070192;28;20204;-53
2022/12/29 00:47:18;;;;;;;0.60;0.53;;;;;17.90;99111.00;;;;2063412;28;20221;-52
2022/12/29 00:49:29;;;;;;;0.70;0.50;;;;;17.90;99116.00;;;;2069902;28;20221;-53
2022/12/29 00:49:39;;;;;;;0.60;0.40;;;;;17.90;99099.00;;;;2070490;28;20216;-53
2022/12/29 00:50:39;;;;;;;0.73;0.50;;;;;18.00;99106.00;;;;2070724;28;20220;-52
2022/12/29 00:51:39;;;;;;;0.70;0.40;;;;;17.90;99111.00;;;;2070567;28;20247;-53
2022/12/29 00:52:40;;;;;;;0.87;0.57;;;;;17.90;99101.00;;;;2069755;28;20214;-52
2022/12/29 00:53:40;;;;;;;0.73;0.60;;;;;17.90;99101.00;;;;2070730;28;20225;-52
2022/12/29 00:54:41;;;;;;;0.73;0.50;;;;;17.90;99104.00;;;;2067826;28;20257;-53
2022/12/29 00:55:41;;;;;;;0.60;0.50;;;;;17.90;99106.00;;;;2077126;28;20229;-52
2022/12/29 00:56:41;;;;;;;0.90;0.60;;;;;17.90;99103.00;;;;2071020;28;20210;-52
2022/12/29 00:57:42;;;;;;;0.70;0.60;;;;;17.90;99112.00;;;;2070501;28;20233;-53
2022/12/29 00:58:42;;;;;;;0.70;0.50;;;;;18.00;99103.00;;;;2070422;28;20214;-52
2022/12/29 00:59:42;;;;;;;0.80;0.40;;;;;17.90;99093.00;;;;2067460;28;20222;-52
2022/12/29 01:00:43;;;;;;;0.77;0.50;;;;;17.90;99101.00;;;;2062157;28;20224;-52
2022/12/29 01:01:43;;;;;;;0.80;0.60;;;;;17.90;99099.00;;;;2062311;28;20221;-52
2022/12/29 01:02:43;;;;;;;0.70;0.53;;;;;17.90;99104.00;;;;2061889;28;20308;-53
2022/12/29 01:03:44;;;;;;;0.77;0.43;;;;;17.90;99100.00;;;;2062588;28;20224;-52
2022/12/29 01:04:45;;;;;;;0.83;0.50;;;;;17.90;99098.00;;;;2062197;28;20217;-53
2022/12/29 01:05:45;;;;;;;0.70;0.50;;;;;17.90;99095.00;;;;2061908;28;20489;-52
2022/12/29 01:06:45;;;;;;;0.77;0.60;;;;;17.90;99092.00;;;;2062606;28;20291;-53
2022/12/29 01:07:46;;;;;;;0.70;0.60;;;;;17.90;99080.00;;;;2062419;28;20230;-52
2022/12/29 01:08:46;;;;;;;0.77;0.50;;;;;17.90;99096.00;;;;2062387;28;20213;-53
2022/12/29 01:11:09;;;;;;;0.70;0.50;;;;;17.90;99088.00;;;;2063674;28;20217;-53
2022/12/29 01:12:10;;;;;;;0.75;0.50;;;;;17.90;99092.00;;;;2060724;28;20248;-52
2022/12/29 01:13:10;;;;;;;0.80;0.60;;;;;17.90;99098.00;;;;2061365;28;20402;-52
2022/12/29 01:14:10;;;;;;;1.33;0.57;;;;;17.90;99096.00;;;;2061657;28;20646;-53
2022/12/29 01:15:12;;;;;;;0.67;0.50;;;;;17.90;99097.00;;;;2061430;28;20274;-53
2022/12/29 01:16:12;;;;;;;0.80;0.60;;;;;17.90;99092.00;;;;2061260;28;20685;-53
2022/12/29 01:17:13;;;;;;;0.60;0.40;;;;;17.90;99095.00;;;;2062295;28;20222;-53
2022/12/29 01:18:13;;;;;;;0.93;0.53;;;;;17.90;99083.00;;;;2061900;28;20226;-53
2022/12/29 01:19:14;;;;;;;0.80;0.60;;;;;17.90;99093.00;;;;2062327;28;20317;-53
2022/12/29 01:20:14;;;;;;;0.67;0.40;;;;;17.90;99100.00;;;;2062208;28;20226;-52
2022/12/29 01:21:14;;;;;;;0.70;0.40;;;;;17.90;99098.00;;;;2062429;28;20221;-52
2022/12/29 01:22:15;;;;;;;0.97;0.53;;;;;17.90;99099.00;;;;2061186;28;20312;-52
2022/12/29 01:23:15;;;;;;;1.37;0.60;;;;;17.90;99097.00;;;;2062304;28;20272;-53
2022/12/29 01:24:16;;;;;;;0.80;0.60;;;;;17.80;99083.00;;;;2062056;28;20215;-52
2022/12/29 01:25:16;;;;;;;0.80;0.50;;;;;17.90;99098.00;;;;2062178;28;20693;-52
2022/12/29 01:26:17;;;;;;;0.70;0.50;;;;;17.90;99084.00;;;;2062128;28;20679;-53
2022/12/29 01:27:17;;;;;;;0.90;0.40;;;;;17.90;99097.00;;;;2066070;28;20218;-52
2022/12/29 01:28:18;;;;;;;1.20;0.70;;;;;17.90;99088.00;;;;2070500;28;20716;-52
2022/12/29 01:29:18;;;;;;;1.13;0.63;;;;;17.90;99093.00;;;;2070286;28;20682;-53
2022/12/29 01:30:18;;;;;;;0.80;0.50;;;;;17.90;99107.00;;;;2068439;28;20736;-53
2022/12/29 01:31:19;;;;;;;0.70;0.40;;;;;17.90;99101.00;;;;2070372;28;20747;-53
2022/12/29 01:32:19;;;;;;;0.60;0.43;;;;;17.90;99103.00;;;;2069288;28;20686;-52
2022/12/29 01:33:19;;;;;;;0.60;0.40;;;;;17.90;99101.00;;;;2070305;28;20677;-52
2022/12/29 01:34:20;;;;;;;0.87;0.50;;;;;17.90;99096.00;;;;2070227;28;20365;-52
2022/12/29 01:35:20;;;;;;;0.70;0.50;;;;;17.90;99104.00;;;;2070235;28;20217;-52
2022/12/29 01:36:20;;;;;;;0.60;0.40;;;;;17.90;99105.00;;;;2066393;28;20243;-53
2022/12/29 01:37:21;;;;;;;0.70;0.50;;;;;17.70;99093.00;;;;2069467;28;20388;-52
2022/12/29 01:38:21;;;;;;;0.80;0.60;;;;;17.90;99095.00;;;;2069102;28;20227;-52
2022/12/29 01:39:21;;;;;;;0.60;0.40;;;;;17.90;99090.00;;;;2069725;28;20248;-52
2022/12/29 01:40:22;;;;;;;0.70;0.40;;;;;17.90;99080.00;;;;2069250;28;20669;-56
2022/12/29 01:41:22;;;;;;;0.80;0.50;;;;;17.90;99081.00;;;;2064934;28;20239;-55
2022/12/29 01:42:24;;;;;;;0.90;0.60;;;;;17.90;99076.00;;;;2061286;28;20245;-54
2022/12/29 01:43:44;;;;;;;0.60;0.40;;;;;17.90;99079.00;;;;2061059;28;20218;-52
2022/12/29 01:44:55;;;;;;;0.90;0.50;;;;;17.90;99079.00;;;;2068539;28;20239;-53
2022/12/29 01:45:56;;;;;;;0.82;0.50;;;;;17.90;99082.00;;;;2069835;28;20220;-53
2022/12/29 01:46:56;;;;;;;0.80;0.57;;;;;17.90;99084.00;;;;2061248;28;20604;-52
2022/12/29 01:48:01;;;;;;;0.83;0.50;;;;;17.90;99088.00;;;;2061390;28;20222;-53
2022/12/29 01:49:10;;;;;;;0.70;0.40;;;;;17.90;99080.00;;;;2061333;28;20328;-52
2022/12/29 01:50:22;;;;;;;0.60;0.40;;;;;17.90;99079.00;;;;2055246;28;20281;-52
2022/12/29 01:51:23;;;;;;;1.05;0.50;;;;;17.90;99073.00;;;;2069406;28;20217;-53
2022/12/29 01:52:24;;;;;;;1.05;0.50;;;;;17.90;99081.00;;;;2068086;28;20252;-56
2022/12/29 01:53:28;;;;;;;0.70;0.40;;;;;17.90;99066.00;;;;2060813;28;20211;-53
2022/12/29 01:54:34;;;;;;;0.70;0.40;;;;;17.90;99069.00;;;;2069135;28;20217;-52
2022/12/29 01:55:37;;;;;;;0.70;0.40;;;;;17.90;99065.00;;;;2069263;28;20271;-53
2022/12/29 01:56:37;;;;;;;0.75;0.50;;;;;17.90;99067.00;;;;2061682;28;20296;-52
2022/12/29 01:57:40;;;;;;;0.70;0.60;;;;;17.90;99077.00;;;;2061374;28;20301;-52
2022/12/29 01:58:41;;;;;;;1.05;0.47;;;;;17.90;99069.00;;;;2053195;28;20222;-52
2022/12/29 01:59:53;;;;;;;0.82;0.65;;;;;17.90;99071.00;;;;2060760;28;20968;-52
2022/12/29 02:00:54;;;;;;;0.70;0.60;;;;;17.90;99070.00;;;;2062670;28;20587;-53
2022/12/29 02:01:54;;;;;;;0.70;0.40;;;;;17.90;99055.00;;;;2068393;28;20217;-52
2022/12/29 02:02:54;;;;;;;0.70;0.50;;;;;17.90;99075.00;;;;2053305;28;20215;-52
2022/12/29 02:03:55;;;;;;;0.77;0.50;;;;;17.90;99060.00;;;;2053056;28;20982;-53
2022/12/29 02:04:55;;;;;;;0.90;0.40;;;;;17.90;99058.00;;;;2061760;28;20303;-53
2022/12/29 02:06:04;;;;;;;0.80;0.60;;;;;17.90;99061.00;;;;2059844;28;20219;-57
2022/12/29 02:07:07;;;;;;;1.00;0.60;;;;;17.90;99067.00;;;;2059668;28;20217;-52
2022/12/29 02:08:08;;;;;;;0.70;0.40;;;;;17.90;99067.00;;;;2069408;28;20284;-52
2022/12/29 02:09:09;;;;;;;0.60;0.40;;;;;17.90;99060.00;;;;2059804;28;20206;-52
2022/12/29 02:10:09;;;;;;;0.70;0.47;;;;;17.90;99065.00;;;;2059735;28;20702;-52
2022/12/29 02:11:09;;;;;;;0.60;0.43;;;;;17.90;99056.00;;;;2061300;28;20850;-52
2022/12/29 02:12:10;;;;;;;0.70;0.50;;;;;17.90;99051.00;;;;2060248;28;20821;-53
2022/12/29 02:13:10;;;;;;;0.60;0.40;;;;;17.90;99060.00;;;;2064699;28;20724;-52
2022/12/29 02:14:11;;;;;;;0.83;0.50;;;;;17.90;99056.00;;;;2069703;28;20685;-53
2022/12/29 02:15:11;;;;;;;0.90;0.40;;;;;17.90;99055.00;;;;2069306;28;20776;-52
2022/12/29 02:16:38;;;;;;;0.80;0.60;;;;;17.90;99055.00;;;;2068665;28;21332;-53
2022/12/29 02:17:38;;;;;;;0.60;0.40;;;;;17.90;99066.00;;;;2068710;28;20212;-52
2022/12/29 02:19:03;;;;;;;0.70;0.50;;;;;17.90;99065.00;;;;2067674;28;20884;-52
2022/12/29 02:20:56;;;;;;;0.80;0.50;;;;;17.90;99059.00;;;;2071959;28;20753;-53
2022/12/29 02:22:25;;;;;;;1.17;0.60;;;;;17.90;99073.00;;;;2066324;28;20357;-53
2022/12/29 02:23:45;;;;;;;0.70;0.50;;;;;17.90;99073.00;;;;2067100;28;20217;-52
2022/12/29 02:24:51;;;;;;;0.60;0.40;;;;;17.90;99064.00;;;;2061023;28;20227;-52
2022/12/29 02:26:19;;;;;;;0.70;0.40;;;;;17.90;99063.00;;;;2060075;28;20217;-52
2022/12/29 02:27:41;;;;;;;0.60;0.35;;;;;17.90;99062.00;;;;2062620;28;20213;-52
2022/12/29 02:29:03;;;;;;;0.70;0.40;;;;;17.90;99053.00;;;;2067129;28;20212;-52
2022/12/29 02:30:04;;;;;;;0.80;0.60;;;;;17.90;99059.00;;;;2073237;28;20208;-52
2022/12/29 02:31:17;;;;;;;0.70;0.50;;;;;17.90;99050.00;;;;2069399;28;20221;-52
2022/12/29 02:33:06;;;;;;;0.60;0.40;;;;;17.90;99055.00;;;;2069101;28;20220;-52
2022/12/29 02:34:24;;;;;;;0.65;0.40;;;;;17.90;99054.00;;;;2063573;28;20212;-53
2022/12/29 02:35:24;;;;;;;0.80;0.55;;;;;17.90;99061.00;;;;2069411;28;20220;-53
2022/12/29 02:36:30;;;;;;;0.70;0.40;;;;;17.90;99055.00;;;;2069728;28;20302;-51
2022/12/29 02:37:52;;;;;;;0.70;0.40;;;;;17.90;99063.00;;;;2069511;28;20245;-52
2022/12/29 02:39:27;;;;;;;0.70;0.40;;;;;17.90;99043.00;;;;2056873;28;20994;-52
2022/12/29 02:40:28;;;;;;;0.85;0.47;;;;;17.90;99051.00;;;;2067626;28;20227;-52
2022/12/29 02:41:50;;;;;;;0.80;0.57;;;;;17.90;99044.00;;;;2066019;28;20229;-52
2022/12/29 02:42:55;;;;;;;0.60;0.40;;;;;17.90;99051.00;;;;2076090;28;20605;-52
2022/12/29 02:44:10;;;;;;;0.70;0.50;;;;;17.90;99035.00;;;;2061542;28;20221;-52
2022/12/29 02:45:34;;;;;;;0.70;0.40;;;;;17.90;99019.00;;;;2066149;28;20218;-53
2022/12/29 02:46:47;;;;;;;0.70;0.40;;;;;17.90;99030.00;;;;2072491;28;20668;-52
2022/12/29 02:47:56;;;;;;;0.73;0.50;;;;;17.90;99025.00;;;;2065258;28;20303;-53
2022/12/29 02:49:41;;;;;;;0.90;0.50;;;;;17.90;99031.00;;;;2069419;28;20244;-52
2022/12/29 02:50:46;;;;;;;0.90;0.45;;;;;17.90;99055.00;;;;2053786;28;20792;-52
2022/12/29 02:51:56;;;;;;;0.70;0.40;;;;;17.90;99026.00;;;;2058963;28;20260;-53
2022/12/29 02:53:02;;;;;;;0.60;0.40;;;;;17.90;99024.00;;;;2068531;28;20271;-53
2022/12/29 02:55:21;;;;;;;0.80;0.47;;;;;17.90;99024.00;;;;2063879;28;20209;-52
2022/12/29 02:56:22;;;;;;;0.70;0.50;;;;;17.90;99028.00;;;;2066842;28;20220;-53
2022/12/29 02:57:22;;;;;;;1.00;0.50;;;;;17.90;99024.00;;;;2068579;28;20294;-52
2022/12/29 02:58:22;;;;;;;0.60;0.40;;;;;17.90;99028.00;;;;2069720;28;20639;-53
2022/12/29 02:59:23;;;;;;;0.70;0.40;;;;;17.90;99026.00;;;;2069597;28;20224;-52
2022/12/29 03:00:23;;;;;;;0.60;0.30;;;;;17.90;99030.00;;;;2069001;28;21281;-52
2022/12/29 03:02:37;;;;;;;0.70;0.40;;;;;17.90;99033.00;;;;2068756;28;20226;-52
2022/12/29 03:04:03;;;;;;;0.70;0.40;;;;;17.90;99025.00;;;;2058406;28;20225;-53
2022/12/29 03:05:21;;;;;;;0.60;0.40;;;;;17.90;99039.00;;;;2051094;28;20344;-53
2022/12/29 03:06:34;;;;;;;0.70;0.40;;;;;17.90;99035.00;;;;2040261;29;20274;-52
2022/12/29 03:08:17;;;;;;;0.60;0.40;;;;;17.90;99028.00;;;;2046390;28;20721;-53
2022/12/29 03:09:25;;;;;;;1.13;0.40;;;;;17.90;99039.00;;;;2059903;28;20258;-52
2022/12/29 03:10:37;;;;;;;1.38;0.40;;;;;17.90;99022.00;;;;2066010;28;20333;-52
2022/12/29 03:16:31;;;;;;;0.98;0.43;;;;;17.90;99025.00;;;;2060853;28;20246;-52
2022/12/29 03:17:57;;;;;;;0.70;0.47;;;;;17.90;99014.00;;;;2070361;28;20216;-52
2022/12/29 03:19:02;;;;;;;0.60;0.40;;;;;17.90;99017.00;;;;2071568;28;20236;-53
2022/12/29 03:20:08;;;;;;;0.90;0.40;;;;;17.90;99007.00;;;;2070592;28;20320;-53
2022/12/29 03:21:18;;;;;;;0.85;0.50;;;;;17.90;99025.00;;;;2073735;28;20409;-53
2022/12/29 03:22:27;;;;;;;0.70;0.40;;;;;17.90;99009.00;;;;2061470;28;20295;-52
2022/12/29 03:23:27;;;;;;;0.73;0.50;;;;;17.90;99020.00;;;;2064329;28;20229;-52
2022/12/29 03:24:30;;;;;;;0.70;0.40;;;;;17.90;99010.00;;;;2062945;28;20316;-53
2022/12/29 03:25:31;;;;;;;0.60;0.50;;;;;17.90;99012.00;;;;2062073;28;20216;-53
2022/12/29 03:26:32;;;;;;;0.60;0.40;;;;;17.90;99008.00;;;;2062189;28;20226;-53
2022/12/29 03:27:36;;;;;;;0.60;0.40;;;;;17.90;99015.00;;;;2060727;28;20697;-53
2022/12/29 03:28:39;;;;;;;1.48;0.40;;;;;17.90;99005.00;;;;2062172;28;20288;-52
2022/12/29 03:29:40;;;;;;;0.60;0.40;;;;;17.90;99011.00;;;;2057683;28;20260;-53
2022/12/29 03:30:41;;;;;;;0.60;0.38;;;;;17.90;99011.00;;;;2054106;28;20369;-53
2022/12/29 03:31:41;;;;;;;0.70;0.50;;;;;17.90;99003.00;;;;2061341;28;20218;-53
2022/12/29 03:32:45;;;;;;;0.60;0.37;;;;;17.90;99008.00;;;;2061298;28;20307;-53
2022/12/29 03:33:46;;;;;;;0.60;0.40;;;;;17.90;99000.00;;;;2062149;28;20872;-52
2022/12/29 03:34:47;;;;;;;0.60;0.40;;;;;17.90;99001.00;;;;2057530;28;20240;-52
2022/12/29 03:35:48;;;;;;;0.60;0.50;;;;;17.90;98996.00;;;;2057005;28;20230;-52
2022/12/29 03:36:52;;;;;;;0.70;0.40;;;;;17.90;98998.00;;;;2062217;28;20210;-53
2022/12/29 03:37:57;;;;;;;0.95;0.47;;;;;17.90;98994.00;;;;2062611;28;20224;-53
2022/12/29 03:39:02;;;;;;;0.80;0.47;;;;;17.90;98988.00;;;;2070147;28;20221;-52
2022/12/29 03:40:03;;;;;;;1.13;0.40;;;;;17.90;99001.00;;;;2061165;28;20233;-53
2022/12/29 03:41:15;;;;;;;0.90;0.50;;;;;17.90;98994.00;;;;2061326;28;20214;-52
2022/12/29 03:42:23;;;;;;;0.60;0.40;;;;;17.90;98999.00;;;;2052768;28;20225;-52
2022/12/29 03:43:23;;;;;;;0.60;0.40;;;;;17.90;98997.00;;;;2045572;28;20330;-52
2022/12/29 03:44:37;;;;;;;0.80;0.40;;;;;17.90;98993.00;;;;2054181;28;20807;-52
2022/12/29 03:45:37;;;;;;;1.10;0.60;;;;;17.90;98992.00;;;;2070031;28;20221;-52
2022/12/29 03:46:38;;;;;;;0.60;0.30;;;;;17.90;98995.00;;;;2070857;28;20216;-52
2022/12/29 03:47:38;;;;;;;1.60;0.40;;;;;17.90;98983.00;;;;2070970;28;20220;-53
2022/12/29 03:48:38;;;;;;;0.70;0.40;;;;;17.90;98985.00;;;;2070008;28;20220;-52
2022/12/29 03:49:39;;;;;;;0.70;0.40;;;;;17.90;98978.00;;;;2070233;28;20358;-52
2022/12/29 03:50:39;;;;;;;0.70;0.40;;;;;17.90;98990.00;;;;2070704;28;20219;-53
2022/12/29 03:51:39;;;;;;;0.70;0.50;;;;;17.90;98986.00;;;;2070602;28;20298;-52
2022/12/29 03:52:40;;;;;;;1.00;0.40;;;;;17.90;98990.00;;;;2069983;28;20208;-52
2022/12/29 03:53:40;;;;;;;0.70;0.40;;;;;17.90;98992.00;;;;2070624;28;20221;-52
2022/12/29 03:54:40;;;;;;;0.80;0.50;;;;;17.90;98994.00;;;;2070293;28;20236;-53
2022/12/29 03:55:41;;;;;;;0.80;0.50;;;;;17.90;99000.00;;;;2070454;28;20295;-53
2022/12/29 03:56:41;;;;;;;0.60;0.40;;;;;17.90;98997.00;;;;2070647;28;20271;-52
2022/12/29 03:57:41;;;;;;;1.03;0.50;;;;;17.90;99000.00;;;;2070781;28;20243;-52
2022/12/29 03:58:42;;;;;;;0.77;0.50;;;;;17.90;98991.00;;;;2070089;28;20248;-52
2022/12/29 03:59:42;;;;;;;1.23;0.40;;;;;17.90;98988.00;;;;2069922;28;20231;-52
2022/12/29 04:00:42;;;;;;;0.60;0.40;;;;;17.90;98993.00;;;;2070244;28;20233;-52
2022/12/29 04:01:43;;;;;;;0.80;0.40;;;;;17.90;98985.00;;;;2070198;28;20251;-52
2022/12/29 04:02:43;;;;;;;0.70;0.40;;;;;17.90;98980.00;;;;2069791;28;20225;-52
2022/12/29 04:03:43;;;;;;;0.70;0.50;;;;;17.90;98972.00;;;;2070523;28;20266;-53
2022/12/29 04:04:44;;;;;;;0.87;0.50;;;;;17.90;98971.00;;;;2070489;28;20222;-52
2022/12/29 04:05:44;;;;;;;0.90;0.50;;;;;17.90;98965.00;;;;2069613;28;20225;-53
2022/12/29 04:06:44;;;;;;;0.70;0.50;;;;;17.90;98963.00;;;;2061895;28;20696;-54
2022/12/29 04:07:45;;;;;;;0.60;0.50;;;;;17.90;98959.00;;;;2062372;28;20224;-55
2022/12/29 04:08:45;;;;;;;0.87;0.50;;;;;17.90;98965.00;;;;2062154;28;20250;-54
2022/12/29 04:09:45;;;;;;;0.90;0.40;;;;;17.90;98960.00;;;;2062107;28;20299;-55
2022/12/29 04:10:45;;;;;;;1.00;0.60;;;;;17.90;98975.00;;;;2062171;28;20371;-54
2022/12/29 04:11:46;;;;;;;0.70;0.40;;;;;17.90;98964.00;;;;2061532;28;20319;-54
2022/12/29 04:12:46;;;;;;;0.60;0.40;;;;;17.90;98959.00;;;;2061618;28;20229;-53
2022/12/29 04:13:46;;;;;;;0.80;0.30;;;;;17.90;98959.00;;;;2062308;28;20228;-53
2022/12/29 04:14:47;;;;;;;0.90;0.53;;;;;17.90;98952.00;;;;2069913;28;20331;-53
2022/12/29 04:15:47;;;;;;;0.90;0.40;;;;;17.90;98957.00;;;;2068756;28;20251;-52
2022/12/29 04:16:47;;;;;;;0.60;0.40;;;;;17.90;98949.00;;;;2061094;28;20231;-53
2022/12/29 04:17:48;;;;;;;0.60;0.40;;;;;17.90;98954.00;;;;2065506;28;20253;-53
2022/12/29 04:18:48;;;;;;;0.70;0.50;;;;;17.80;98942.00;;;;2070164;28;20228;-53
2022/12/29 04:19:48;;;;;;;0.60;0.30;;;;;17.80;98949.00;;;;2069214;28;20311;-52
2022/12/29 04:21:07;;;;;;;0.60;0.40;;;;;17.80;98952.00;;;;2069756;28;20228;-52
2022/12/29 04:22:07;;;;;;;2.78;0.40;;;;;17.90;98949.00;;;;2069398;28;20714;-52
2022/12/29 04:23:08;;;;;;;0.70;0.40;;;;;17.90;98944.00;;;;2070298;28;20211;-52
2022/12/29 04:24:08;;;;;;;0.60;0.40;;;;;17.80;98942.00;;;;2070398;28;20221;-52
2022/12/29 04:25:08;;;;;;;0.60;0.40;;;;;17.90;98942.00;;;;2070462;28;20238;-53
2022/12/29 04:26:09;;;;;;;0.60;0.40;;;;;17.90;98955.00;;;;2069868;28;20220;-53
2022/12/29 04:27:09;;;;;;;0.60;0.40;;;;;17.90;98958.00;;;;2070379;28;20265;-52
2022/12/29 04:28:09;;;;;;;0.67;0.50;;;;;17.80;98942.00;;;;2069822;28;20212;-53
2022/12/29 04:29:10;;;;;;;0.60;0.30;;;;;17.90;98945.00;;;;2069951;28;20235;-53
2022/12/29 04:30:11;;;;;;;0.60;0.40;;;;;17.90;98938.00;;;;2069222;28;20240;-53
2022/12/29 04:31:11;;;;;;;1.03;0.40;;;;;17.90;98934.00;;;;2070466;28;20627;-53
2022/12/29 04:32:11;;;;;;;0.70;0.40;;;;;17.90;98940.00;;;;2069530;28;20224;-52
2022/12/29 04:33:12;;;;;;;0.60;0.40;;;;;17.80;98936.00;;;;2070056;28;20220;-52
2022/12/29 04:34:12;;;;;;;0.67;0.30;;;;;17.80;98960.00;;;;2069394;28;20279;-52
2022/12/29 04:35:12;;;;;;;0.70;0.40;;;;;17.90;98955.00;;;;2070421;28;20294;-52
2022/12/29 04:36:13;;;;;;;0.67;0.50;;;;;17.90;98953.00;;;;2069477;28;20275;-52
2022/12/29 04:37:13;;;;;;;0.77;0.40;;;;;17.90;98950.00;;;;2070505;28;20216;-53
2022/12/29 04:38:14;;;;;;;0.90;0.40;;;;;17.90;98958.00;;;;2069960;28;20223;-52
2022/12/29 04:39:14;;;;;;;0.60;0.40;;;;;17.90;98954.00;;;;2070476;28;20300;-52
2022/12/29 04:40:15;;;;;;;0.60;0.40;;;;;17.90;98955.00;;;;2070646;28;20218;-52
2022/12/29 04:41:15;;;;;;;0.60;0.30;;;;;17.90;98968.00;;;;2066973;28;20714;-53
2022/12/29 04:42:15;;;;;;;0.60;0.30;;;;;17.90;98963.00;;;;2061781;28;20218;-52
2022/12/29 04:43:16;;;;;;;0.63;0.30;;;;;17.90;98952.00;;;;2062790;28;20229;-52
2022/12/29 04:44:16;;;;;;;0.60;0.40;;;;;17.90;98946.00;;;;2062512;28;20222;-52
2022/12/29 04:45:17;;;;;;;0.70;0.40;;;;;17.80;98944.00;;;;2062656;28;20636;-53
2022/12/29 04:46:17;;;;;;;0.90;0.40;;;;;17.80;98956.00;;;;2062514;28;20695;-53
2022/12/29 04:47:17;;;;;;;0.60;0.40;;;;;17.80;98960.00;;;;2062630;28;20219;-53
2022/12/29 04:48:18;;;;;;;0.80;0.40;;;;;17.80;98953.00;;;;2062268;28;20221;-52
2022/12/29 04:49:18;;;;;;;0.60;0.30;;;;;17.80;98949.00;;;;2062544;28;20216;-53
2022/12/29 04:50:18;;;;;;;1.13;0.50;;;;;17.80;98942.00;;;;2061489;28;20319;-53
2022/12/29 04:51:19;;;;;;;0.70;0.40;;;;;17.80;98943.00;;;;2062558;28;20218;-53
2022/12/29 04:52:19;;;;;;;0.80;0.50;;;;;17.90;98942.00;;;;2060796;28;20228;-53
2022/12/29 04:53:19;;;;;;;0.60;0.40;;;;;17.80;98957.00;;;;2061857;28;20246;-53
2022/12/29 04:54:20;;;;;;;0.60;0.40;;;;;17.80;98951.00;;;;2061970;28;20227;-52
2022/12/29 04:55:20;;;;;;;0.60;0.40;;;;;17.80;98951.00;;;;2069980;28;20237;-52
2022/12/29 04:56:20;;;;;;;0.60;0.30;;;;;17.90;98957.00;;;;2070105;28;20220;-52
2022/12/29 04:57:21;;;;;;;0.70;0.40;;;;;17.90;98965.00;;;;2070756;28;20596;-53
2022/12/29 04:58:21;;;;;;;0.70;0.40;;;;;17.90;98958.00;;;;2070753;28;20712;-52
2022/12/29 04:59:21;;;;;;;0.77;0.43;;;;;17.80;98945.00;;;;2070524;28;20689;-52
2022/12/29 05:00:22;;;;;;;0.60;0.40;;;;;17.80;98949.00;;;;2070410;28;20225;-53
2022/12/29 05:01:22;;;;;;;0.60;0.40;;;;;17.80;98963.00;;;;2070449;28;20222;-52
2022/12/29 05:02:22;;;;;;;0.70;0.40;;;;;17.80;98950.00;;;;2068677;28;22355;-56
2022/12/29 05:03:23;;;;;;;0.70;0.40;;;;;17.90;98968.00;;;;2070323;28;20209;-55
2022/12/29 05:04:23;;;;;;;0.60;0.30;;;;;17.80;98947.00;;;;2069418;28;20272;-53
2022/12/29 05:05:23;;;;;;;0.70;0.40;;;;;17.80;98960.00;;;;2062317;28;20275;-53
2022/12/29 05:06:24;;;;;;;0.60;0.30;;;;;17.90;98959.00;;;;2062198;28;20228;-53
2022/12/29 05:07:24;;;;;;;0.60;0.40;;;;;17.90;98967.00;;;;2062551;28;20223;-53
2022/12/29 05:08:25;;;;;;;0.60;0.30;;;;;17.80;98960.00;;;;2062363;28;20213;-53
2022/12/29 05:09:25;;;;;;;0.80;0.40;;;;;17.90;98950.00;;;;2062441;28;20224;-53
2022/12/29 05:10:25;;;;;;;0.60;0.40;;;;;17.90;98962.00;;;;2061805;28;20221;-52
2022/12/29 05:11:26;;;;;;;0.60;0.40;;;;;17.90;98960.00;;;;2062473;28;20225;-52
2022/12/29 05:12:30;;;;;;;0.70;0.40;;;;;17.80;98967.00;;;;2061440;28;20303;-53
2022/12/29 05:13:30;;;;;;;0.65;0.38;;;;;17.90;98964.00;;;;2062293;28;20218;-53
2022/12/29 05:14:30;;;;;;;0.60;0.40;;;;;17.80;98965.00;;;;2062343;28;20247;-52
2022/12/29 05:15:31;;;;;;;0.63;0.40;;;;;17.90;98970.00;;;;2062290;28;20217;-52
2022/12/29 05:16:31;;;;;;;0.60;0.40;;;;;17.90;98974.00;;;;2062211;28;20224;-52
2022/12/29 05:17:31;;;;;;;0.70;0.40;;;;;17.90;98968.00;;;;2062466;28;20284;-52
2022/12/29 05:18:32;;;;;;;0.60;0.40;;;;;17.90;98971.00;;;;2062034;28;20270;-53
2022/12/29 05:19:32;;;;;;;0.70;0.40;;;;;17.80;98981.00;;;;2059985;28;20231;-52
2022/12/29 05:20:32;;;;;;;0.70;0.50;;;;;17.90;98979.00;;;;2077802;28;20216;-52
2022/12/29 05:21:33;;;;;;;0.90;0.40;;;;;17.80;98981.00;;;;2069590;28;20247;-52
2022/12/29 05:22:33;;;;;;;0.60;0.30;;;;;17.80;98968.00;;;;2069588;28;20209;-52
2022/12/29 05:23:33;;;;;;;0.67;0.40;;;;;17.90;98977.00;;;;2070448;28;20896;-53
2022/12/29 05:24:34;;;;;;;0.90;0.50;;;;;17.80;98975.00;;;;2069866;28;20243;-52
2022/12/29 05:25:34;;;;;;;0.80;0.40;;;;;17.90;98987.00;;;;2070499;28;20609;-52
2022/12/29 05:26:34;;;;;;;0.60;0.30;;;;;17.90;98991.00;;;;2070066;28;20592;-52
2022/12/29 05:27:35;;;;;;;0.60;0.40;;;;;17.90;98984.00;;;;2069738;28;20327;-53
2022/12/29 05:28:35;;;;;;;0.70;0.40;;;;;17.90;98971.00;;;;2061140;28;20262;-53
2022/12/29 05:29:35;;;;;;;0.70;0.50;;;;;17.80;98982.00;;;;2069753;28;20224;-53
2022/12/29 05:30:36;;;;;;;1.00;0.47;;;;;17.80;98989.00;;;;2070465;28;20684;-52
2022/12/29 05:31:36;;;;;;;0.70;0.40;;;;;17.90;98981.00;;;;2070145;28;20709;-52
2022/12/29 05:32:36;;;;;;;0.70;0.40;;;;;17.90;99001.00;;;;2069642;28;20767;-53
2022/12/29 05:33:37;;;;;;;0.83;0.40;;;;;17.80;99004.00;;;;2070247;28;20693;-53
2022/12/29 05:34:37;;;;;;;0.60;0.30;;;;;17.90;99013.00;;;;2070337;28;20216;-52
2022/12/29 05:35:37;;;;;;;0.70;0.40;;;;;17.80;98994.00;;;;2070305;28;20818;-52
2022/12/29 05:36:38;;;;;;;0.60;0.30;;;;;17.90;98996.00;;;;2070080;28;20713;-53
2022/12/29 05:37:38;;;;;;;0.87;0.50;;;;;17.90;99008.00;;;;2070360;28;20913;-53
2022/12/29 05:38:39;;;;;;;0.60;0.30;;;;;17.90;99007.00;;;;2068800;28;20275;-52
2022/12/29 05:39:39;;;;;;;0.63;0.37;;;;;17.90;99005.00;;;;2061761;28;20220;-52
2022/12/29 05:40:39;;;;;;;0.60;0.40;;;;;17.90;99006.00;;;;2065420;28;20224;-52
2022/12/29 05:41:40;;;;;;;0.73;0.40;;;;;17.90;99022.00;;;;2062528;28;20245;-53
2022/12/29 05:42:40;;;;;;;0.87;0.50;;;;;17.90;99000.00;;;;2061214;28;20243;-52
2022/12/29 05:43:40;;;;;;;1.00;0.40;;;;;17.80;99012.00;;;;2062167;28;20214;-52
2022/12/29 05:44:40;;;;;;;0.70;0.40;;;;;17.80;99023.00;;;;2062195;28;20247;-53
2022/12/29 05:45:41;;;;;;;1.07;0.40;;;;;17.80;99023.00;;;;2062244;28;20632;-52
2022/12/29 05:46:41;;;;;;;0.90;0.40;;;;;17.90;99020.00;;;;2062095;28;20929;-52
2022/12/29 05:47:41;;;;;;;1.00;0.40;;;;;17.80;99015.00;;;;2061984;28;20232;-52
2022/12/29 05:48:42;;;;;;;0.80;0.30;;;;;17.80;99009.00;;;;2062320;28;20244;-52
2022/12/29 05:49:42;;;;;;;0.60;0.40;;;;;17.80;99021.00;;;;2062188;28;20212;-53
2022/12/29 05:50:42;;;;;;;0.70;0.40;;;;;17.80;99012.00;;;;2062032;28;20264;-53
2022/12/29 05:51:43;;;;;;;0.60;0.40;;;;;17.80;99006.00;;;;2061920;28;20266;-52
2022/12/29 05:52:43;;;;;;;1.27;0.40;;;;;17.80;99007.00;;;;2061380;28;20219;-53